Time;durP1;ratioP1;P1;durP2;ratioP2;P2;SDS_P1;SDS_P2;PMS_P1;PMS_P2;Temp;Humidity;BMP_temperature;BMP_pressure;BME280_temperature;BME280_humidity;BME280_pressure;Samples;Min_cycle;Max_cycle;Signal;HPM_P1;HPM_P2
2022/02/05 00:00:29;;;;;;;;;;;5.80;99.90;;;;;;2101311;28;20426;-71
2022/02/05 00:01:38;;;;;;;;;;;5.80;99.90;;;;;;2103321;28;19908;-71
2022/02/05 00:02:55;;;;;;;;;;;5.80;99.90;;;;;;2102540;28;20284;-71
2022/02/05 00:04:01;;;;;;;;;;;5.80;99.90;;;;;;2096737;28;19912;-71
2022/02/05 00:05:02;;;;;;;;;;;5.90;99.90;;;;;;2098520;28;20393;-71
2022/02/05 00:06:05;;;;;;;;;;;5.90;99.90;;;;;;2102860;28;19923;-71
2022/02/05 00:07:07;;;;;;;;;;;5.90;99.90;;;;;;2105035;28;19916;-71
2022/02/05 00:09:17;;;;;;;;;;;5.80;99.90;;;;;;2103435;28;19989;-70
2022/02/05 00:11:07;;;;;;;;;;;5.80;99.90;;;;;;2103346;28;19913;-71
2022/02/05 00:12:11;;;;;;;;;;;5.80;99.90;;;;;;2104389;28;20517;-71
2022/02/05 00:15:31;;;;;;;;;;;5.80;99.90;;;;;;2089210;28;19905;-70
2022/02/05 00:20:28;;;;;;;;;;;5.80;99.90;;;;;;2103379;28;19912;-71
2022/02/05 00:39:07;;;;;;;;;;;5.60;99.90;;;;;;2097340;28;20299;-71
2022/02/05 00:40:15;;;;;;;;;;;5.60;99.90;;;;;;2104817;28;19908;-71
2022/02/05 00:41:23;;;;;;;;;;;5.60;99.90;;;;;;2103299;28;20284;-71
2022/02/05 00:42:31;;;;;;;;;;;5.60;99.90;;;;;;2103485;28;20233;-71
2022/02/05 00:43:31;;;;;;;;;;;5.60;99.90;;;;;;2103058;28;19916;-71
2022/02/05 00:44:32;;;;;;;;;;;5.60;99.90;;;;;;2110298;28;19908;-71
2022/02/05 00:45:36;;;;;;;;;;;5.60;99.90;;;;;;2106941;28;19946;-71
2022/02/05 00:46:39;;;;;;;;;;;5.60;99.90;;;;;;2105903;28;20417;-71
2022/02/05 00:47:43;;;;;;;;;;;5.60;99.90;;;;;;2100904;28;19917;-70
2022/02/05 00:48:46;;;;;;;;;;;5.60;99.90;;;;;;2100625;28;19958;-70
2022/02/05 00:49:51;;;;;;;;;;;5.60;99.90;;;;;;2107194;28;19912;-71
2022/02/05 00:50:57;;;;;;;;;;;5.60;99.90;;;;;;2102336;28;19908;-71
2022/02/05 00:52:06;;;;;;;;;;;5.60;99.90;;;;;;2099995;28;19909;-71
2022/02/05 00:53:13;;;;;;;;;;;5.60;99.90;;;;;;2099502;28;20408;-71
2022/02/05 00:54:18;;;;;;;;;;;5.60;99.90;;;;;;2091899;28;19909;-71
2022/02/05 00:55:23;;;;;;;;;;;5.60;99.90;;;;;;2095725;28;19920;-71
2022/02/05 00:56:37;;;;;;;;;;;5.60;99.90;;;;;;2103027;28;20280;-71
2022/02/05 00:57:46;;;;;;;;;;;5.50;99.90;;;;;;2105669;28;20344;-71
2022/02/05 00:58:47;;;;;;;;;;;5.60;99.90;;;;;;2103123;28;20007;-71
2022/02/05 00:59:47;;;;;;;;;;;5.60;99.90;;;;;;2091341;28;19913;-71
2022/02/05 01:00:48;;;;;;;;;;;5.60;99.90;;;;;;2094985;28;19912;-71
2022/02/05 01:01:49;;;;;;;;;;;5.60;99.90;;;;;;2101065;28;19943;-71
2022/02/05 01:02:49;;;;;;;;;;;5.60;99.90;;;;;;2105180;28;20028;-71
2022/02/05 01:03:49;;;;;;;;;;;5.60;99.90;;;;;;2103993;28;20272;-71
2022/02/05 01:04:50;;;;;;;;;;;5.60;99.90;;;;;;2101421;28;20009;-71
2022/02/05 01:05:50;;;;;;;;;;;5.50;99.90;;;;;;2100967;28;19912;-71
2022/02/05 01:06:51;;;;;;;;;;;5.50;99.90;;;;;;2098570;28;19995;-71
2022/02/05 01:07:52;;;;;;;;;;;5.60;99.90;;;;;;2105864;28;19947;-71
2022/02/05 01:08:53;;;;;;;;;;;5.60;99.90;;;;;;2111116;28;19912;-71
2022/02/05 01:09:53;;;;;;;;;;;5.60;99.90;;;;;;2106439;28;19908;-71
2022/02/05 01:10:54;;;;;;;;;;;5.60;99.90;;;;;;2112150;28;20335;-71
2022/02/05 01:11:56;;;;;;;;;;;5.60;99.90;;;;;;2105787;28;19915;-71
2022/02/05 01:13:01;;;;;;;;;;;5.50;99.90;;;;;;2104494;28;19920;-71
2022/02/05 01:14:04;;;;;;;;;;;5.60;99.90;;;;;;2099544;28;19912;-71
2022/02/05 01:15:05;;;;;;;;;;;5.60;99.90;;;;;;2108277;28;19954;-71
2022/02/05 01:16:18;;;;;;;;;;;5.60;99.90;;;;;;2098639;28;20109;-71
2022/02/05 01:17:25;;;;;;;;;;;5.50;99.90;;;;;;2095543;28;19919;-71
2022/02/05 01:18:26;;;;;;;;;;;5.50;99.90;;;;;;2109795;28;19919;-71
2022/02/05 01:21:53;;;;;;;;;;;5.50;99.90;;;;;;2101240;28;19923;-71
2022/02/05 01:22:55;;;;;;;;;;;5.50;99.90;;;;;;2098542;28;20268;-71
2022/02/05 01:24:01;;;;;;;;;;;5.50;99.90;;;;;;2103100;28;19964;-71
2022/02/05 01:25:02;;;;;;;;;;;5.50;99.90;;;;;;2100980;28;19919;-71
2022/02/05 01:26:22;;;;;;;;;;;5.50;99.90;;;;;;2099885;28;19958;-71
2022/02/05 01:27:34;;;;;;;;;;;5.50;99.90;;;;;;2110305;28;19912;-71
2022/02/05 01:28:36;;;;;;;;;;;5.50;99.90;;;;;;2109657;28;19923;-71
2022/02/05 01:30:10;;;;;;;;;;;5.50;99.90;;;;;;2098892;28;19923;-71
2022/02/05 01:30:59;;;;;;;;;;;5.50;99.90;;;;;;2101877;28;20372;-71
2022/02/05 01:32:05;;;;;;;;;;;5.50;99.90;;;;;;2099947;28;20343;-71
2022/02/05 01:39:36;;;;;;;;;;;5.50;99.90;;;;;;2100767;28;19923;-71
2022/02/05 01:52:00;;;;;;;;;;;5.40;99.90;;;;;;2095055;28;20288;-70
2022/02/05 01:55:32;;;;;;;;;;;5.40;99.90;;;;;;2099856;28;19916;-71
2022/02/05 01:56:46;;;;;;;;;;;5.40;99.90;;;;;;2093275;28;19909;-71
2022/02/05 01:58:08;;;;;;;;;;;5.40;99.90;;;;;;2096270;28;20297;-71
2022/02/05 01:59:20;;;;;;;;;;;5.40;99.90;;;;;;2108614;28;20014;-71
2022/02/05 02:05:51;;;;;;;;;;;5.40;99.90;;;;;;2103215;28;19916;-71
2022/02/05 02:11:35;;;;;;;;;;;5.40;99.90;;;;;;2099696;28;20007;-71
2022/02/05 02:12:41;;;;;;;;;;;5.40;99.90;;;;;;2093696;28;19913;-71
2022/02/05 02:16:24;;;;;;;;;;;5.30;99.90;;;;;;2105891;28;20360;-71
2022/02/05 02:21:15;;;;;;;;;;;5.30;99.90;;;;;;2103801;28;19915;-71
2022/02/05 02:22:32;;;;;;;;;;;5.30;99.90;;;;;;2102653;28;20320;-71
2022/02/05 02:29:02;;;;;;;;;;;5.20;99.90;;;;;;2102286;28;19912;-71
2022/02/05 02:31:16;;;;;;;;;;;5.20;99.90;;;;;;2101061;28;22282;-70
2022/02/05 02:32:18;;;;;;;;;;;5.20;99.90;;;;;;2104502;28;20375;-70
2022/02/05 02:33:30;;;;;;;;;;;5.20;99.90;;;;;;2102015;28;20276;-70
2022/02/05 02:34:36;;;;;;;;;;;5.20;99.90;;;;;;2103964;28;20477;-70
2022/02/05 02:35:42;;;;;;;;;;;5.20;99.90;;;;;;2100862;28;19912;-70
2022/02/05 02:36:54;;;;;;;;;;;5.20;99.90;;;;;;2102397;28;19955;-70
2022/02/05 02:38:03;;;;;;;;;;;5.20;99.90;;;;;;2105956;28;20411;-70
2022/02/05 02:39:12;;;;;;;;;;;5.20;99.90;;;;;;2102024;28;20382;-70
2022/02/05 02:41:24;;;;;;;;;;;5.20;99.90;;;;;;2102588;28;19913;-70
2022/02/05 02:42:25;;;;;;;;;;;5.10;99.90;;;;;;2103751;28;19915;-70
2022/02/05 02:43:28;;;;;;;;;;;5.10;99.90;;;;;;2104141;28;19916;-70
2022/02/05 02:44:29;;;;;;;;;;;5.10;99.90;;;;;;2110288;28;19965;-70
2022/02/05 02:45:29;;;;;;;;;;;5.10;99.90;;;;;;2109666;28;20007;-70
2022/02/05 02:46:30;;;;;;;;;;;5.10;99.90;;;;;;2105674;28;19912;-70
2022/02/05 02:47:30;;;;;;;;;;;5.00;99.90;;;;;;2099104;28;19916;-70
2022/02/05 02:48:31;;;;;;;;;;;5.00;99.90;;;;;;2100432;28;19912;-70
2022/02/05 02:57:29;;;;;;;;;;;5.00;99.90;;;;;;2103666;28;19919;-70
2022/02/05 02:58:32;;;;;;;;;;;4.90;99.90;;;;;;2105029;28;19947;-70
2022/02/05 02:59:48;;;;;;;;;;;4.90;99.90;;;;;;2102231;28;20276;-70
2022/02/05 03:00:54;;;;;;;;;;;5.00;99.90;;;;;;2102784;28;19908;-70
2022/02/05 03:02:01;;;;;;;;;;;5.00;99.90;;;;;;2098707;28;19951;-70
2022/02/05 03:03:02;;;;;;;;;;;4.90;99.90;;;;;;2099417;28;19912;-70
2022/02/05 03:04:02;;;;;;;;;;;5.00;99.90;;;;;;2102406;28;19909;-70
2022/02/05 03:05:03;;;;;;;;;;;4.90;99.90;;;;;;2102386;28;19920;-70
2022/02/05 03:06:03;;;;;;;;;;;5.00;99.90;;;;;;2093551;28;19908;-70
2022/02/05 03:07:04;;;;;;;;;;;5.00;99.90;;;;;;2096721;28;19961;-70
2022/02/05 03:08:06;;;;;;;;;;;4.90;99.90;;;;;;2101664;28;20450;-70
2022/02/05 03:09:06;;;;;;;;;;;4.90;99.90;;;;;;2101681;28;20092;-70
2022/02/05 03:10:07;;;;;;;;;;;4.90;99.90;;;;;;2099494;28;19913;-70
2022/02/05 03:11:08;;;;;;;;;;;4.90;99.90;;;;;;2103258;28;19937;-70
2022/02/05 03:12:08;;;;;;;;;;;4.90;99.90;;;;;;2100891;28;19957;-70
2022/02/05 03:13:09;;;;;;;;;;;4.90;99.90;;;;;;2098745;28;19962;-70
2022/02/05 03:14:09;;;;;;;;;;;4.90;99.90;;;;;;2105680;28;19916;-71
2022/02/05 03:15:18;;;;;;;;;;;4.90;99.90;;;;;;2105599;28;19912;-70
2022/02/05 03:16:24;;;;;;;;;;;4.90;99.90;;;;;;2107701;28;19914;-70
2022/02/05 03:17:26;;;;;;;;;;;4.90;99.90;;;;;;2104942;28;20314;-70
2022/02/05 03:19:00;;;;;;;;;;;4.90;99.90;;;;;;2101713;28;20433;-70
2022/02/05 03:19:49;;;;;;;;;;;4.90;99.90;;;;;;2104230;28;19973;-70
2022/02/05 03:20:49;;;;;;;;;;;5.00;99.90;;;;;;2092271;28;20388;-70
2022/02/05 03:21:50;;;;;;;;;;;5.00;99.90;;;;;;2093512;28;20260;-70
2022/02/05 03:22:50;;;;;;;;;;;5.00;99.90;;;;;;2107966;28;19915;-70
2022/02/05 03:23:51;;;;;;;;;;;5.00;99.90;;;;;;2109685;28;19935;-70
2022/02/05 03:24:51;;;;;;;;;;;5.00;99.90;;;;;;2098393;28;19912;-70
2022/02/05 03:25:52;;;;;;;;;;;5.00;99.90;;;;;;2098371;28;19912;-70
2022/02/05 03:26:52;;;;;;;;;;;5.00;99.90;;;;;;2105422;28;19951;-70
2022/02/05 03:27:52;;;;;;;;;;;5.00;99.90;;;;;;2106682;28;19951;-70
2022/02/05 03:28:53;;;;;;;;;;;5.00;99.90;;;;;;2105926;28;19938;-70
2022/02/05 03:29:53;;;;;;;;;;;5.00;99.90;;;;;;2104469;28;20007;-70
2022/02/05 03:30:54;;;;;;;;;;;5.00;99.90;;;;;;2100455;28;19909;-70
2022/02/05 03:31:54;;;;;;;;;;;5.00;99.90;;;;;;2102851;28;19916;-70
2022/02/05 03:32:56;;;;;;;;;;;5.10;99.90;;;;;;2104978;28;19908;-70
2022/02/05 03:33:56;;;;;;;;;;;5.00;99.90;;;;;;2104312;28;19917;-70
2022/02/05 03:34:57;;;;;;;;;;;5.00;99.90;;;;;;2094839;28;20393;-70
2022/02/05 03:35:57;;;;;;;;;;;5.10;99.90;;;;;;2093624;28;19956;-70
2022/02/05 03:36:58;;;;;;;;;;;5.10;99.90;;;;;;2104895;28;20300;-70
2022/02/05 03:37:58;;;;;;;;;;;5.10;99.90;;;;;;2098877;28;19908;-70
2022/02/05 03:38:59;;;;;;;;;;;5.10;99.90;;;;;;2094853;28;19924;-70
2022/02/05 03:39:59;;;;;;;;;;;5.10;99.90;;;;;;2106378;28;20389;-70
2022/02/05 03:41:00;;;;;;;;;;;5.10;99.90;;;;;;2103901;28;19943;-70
2022/02/05 03:42:00;;;;;;;;;;;5.10;99.90;;;;;;2106442;28;19912;-70
2022/02/05 03:43:01;;;;;;;;;;;5.10;99.90;;;;;;2103451;28;19943;-70
2022/02/05 03:44:02;;;;;;;;;;;5.10;99.90;;;;;;2109436;28;19912;-70
2022/02/05 03:45:03;;;;;;;;;;;5.10;99.90;;;;;;2113386;27;19945;-71
2022/02/05 03:46:04;;;;;;;;;;;5.10;99.90;;;;;;2102215;28;20009;-70
2022/02/05 03:47:04;;;;;;;;;;;5.10;99.90;;;;;;2099780;28;19916;-71
2022/02/05 03:48:06;;;;;;;;;;;5.10;99.90;;;;;;2113468;28;20008;-71
2022/02/05 03:49:06;;;;;;;;;;;5.00;99.90;;;;;;2108772;28;20181;-71
2022/02/05 03:50:07;;;;;;;;;;;5.10;99.90;;;;;;2101570;28;19923;-70
2022/02/05 03:51:08;;;;;;;;;;;5.00;99.90;;;;;;2112876;28;19957;-70
2022/02/05 03:52:08;;;;;;;;;;;5.00;99.90;;;;;;2108344;28;20826;-70
2022/02/05 03:53:08;;;;;;;;;;;5.00;99.90;;;;;;2103473;28;19944;-70
2022/02/05 03:54:09;;;;;;;;;;;5.00;99.90;;;;;;2103270;28;20041;-70
2022/02/05 03:55:10;;;;;;;;;;;5.10;99.90;;;;;;2106905;28;20383;-70
2022/02/05 03:56:11;;;;;;;;;;;5.10;99.90;;;;;;2113374;28;20379;-71
2022/02/05 03:57:11;;;;;;;;;;;5.10;99.90;;;;;;2109335;28;20390;-71
2022/02/05 03:58:12;;;;;;;;;;;5.10;99.90;;;;;;2091878;28;20007;-71
2022/02/05 03:59:13;;;;;;;;;;;5.10;99.90;;;;;;2096526;28;19913;-71
2022/02/05 04:00:14;;;;;;;;;;;5.10;99.90;;;;;;2099774;28;20311;-71
2022/02/05 04:01:14;;;;;;;;;;;5.10;99.90;;;;;;2099560;28;19912;-71
2022/02/05 04:02:15;;;;;;;;;;;5.10;99.90;;;;;;2105335;28;19958;-71
2022/02/05 04:03:15;;;;;;;;;;;5.10;99.90;;;;;;2100755;28;19912;-71
2022/02/05 04:04:16;;;;;;;;;;;5.10;99.90;;;;;;2104776;28;19908;-71
2022/02/05 04:05:16;;;;;;;;;;;5.00;99.90;;;;;;2103427;28;20007;-71
2022/02/05 04:06:17;;;;;;;;;;;5.10;99.90;;;;;;2100472;28;19913;-71
2022/02/05 04:07:17;;;;;;;;;;;5.10;99.90;;;;;;2102243;28;19935;-71
2022/02/05 04:08:18;;;;;;;;;;;5.10;99.90;;;;;;2098628;28;19947;-71
2022/02/05 04:09:24;;;;;;;;;;;5.10;99.90;;;;;;2103403;28;19949;-71
2022/02/05 04:10:30;;;;;;;;;;;5.10;99.90;;;;;;2103830;28;19955;-71
2022/02/05 04:11:36;;;;;;;;;;;5.10;99.90;;;;;;2102001;28;19919;-71
2022/02/05 04:16:34;;;;;;;;;;;5.10;99.90;;;;;;2098143;28;19912;-70
2022/02/05 04:17:34;;;;;;;;;;;5.10;99.90;;;;;;2104944;28;19912;-71
2022/02/05 04:18:35;;;;;;;;;;;5.10;99.90;;;;;;2102168;28;20842;-71
2022/02/05 04:19:35;;;;;;;;;;;5.10;99.90;;;;;;2105785;28;20375;-71
2022/02/05 04:20:38;;;;;;;;;;;5.10;99.90;;;;;;2102687;28;19920;-71
2022/02/05 04:21:38;;;;;;;;;;;5.10;99.90;;;;;;2099975;28;19921;-72
2022/02/05 04:22:39;;;;;;;;;;;5.10;99.90;;;;;;2103127;28;19908;-71
2022/02/05 04:23:39;;;;;;;;;;;5.10;99.90;;;;;;2100682;28;19908;-71
2022/02/05 04:24:40;;;;;;;;;;;5.10;99.90;;;;;;2097384;28;19912;-71
2022/02/05 04:25:41;;;;;;;;;;;5.10;99.90;;;;;;2092616;28;19920;-71
2022/02/05 04:26:41;;;;;;;;;;;5.10;99.90;;;;;;2102058;28;19912;-71
2022/02/05 04:27:42;;;;;;;;;;;5.10;99.90;;;;;;2099839;28;20296;-71
2022/02/05 04:28:43;;;;;;;;;;;5.10;99.90;;;;;;2101637;28;20336;-71
2022/02/05 04:29:43;;;;;;;;;;;5.10;99.90;;;;;;2103008;28;19959;-71
2022/02/05 04:30:43;;;;;;;;;;;5.10;99.90;;;;;;2101747;28;20372;-71
2022/02/05 04:31:44;;;;;;;;;;;5.10;99.90;;;;;;2102130;28;20015;-71
2022/02/05 04:32:44;;;;;;;;;;;5.10;99.90;;;;;;2115297;27;19947;-71
2022/02/05 04:33:45;;;;;;;;;;;5.10;99.90;;;;;;2114743;27;20614;-71
2022/02/05 04:34:45;;;;;;;;;;;5.10;99.90;;;;;;2104039;28;19912;-71
2022/02/05 04:35:46;;;;;;;;;;;5.10;99.90;;;;;;2101875;28;20289;-71
2022/02/05 04:36:47;;;;;;;;;;;5.10;99.90;;;;;;2101554;28;19916;-71
2022/02/05 04:37:51;;;;;;;;;;;5.10;99.90;;;;;;2105044;28;19951;-71
2022/02/05 04:38:53;;;;;;;;;;;5.10;99.90;;;;;;2102392;28;19920;-71
2022/02/05 04:40:25;;;;;;;;;;;5.10;99.90;;;;;;2106221;28;19916;-71
2022/02/05 04:41:31;;;;;;;;;;;5.10;99.90;;;;;;2103815;28;19916;-71
2022/02/05 04:42:43;;;;;;;;;;;5.10;99.90;;;;;;2098431;28;19909;-71
2022/02/05 04:45:38;;;;;;;;;;;5.20;99.90;;;;;;2105095;28;19923;-71
2022/02/05 04:58:00;;;;;;;;;;;5.30;99.90;;;;;;2101976;28;20034;-71
2022/02/05 05:00:20;;;;;;;;;;;5.30;99.90;;;;;;2107000;28;19991;-71
2022/02/05 05:04:06;;;;;;;;;;;5.30;99.90;;;;;;2101644;28;19981;-71
2022/02/05 05:06:30;;;;;;;;;;;5.30;99.90;;;;;;2105579;28;19919;-72
2022/02/05 05:07:53;;;;;;;;;;;5.30;99.90;;;;;;2102970;28;19908;-71
2022/02/05 05:10:25;;;;;;;;;;;5.30;99.90;;;;;;2104915;28;19961;-71
2022/02/05 05:11:43;;;;;;;;;;;5.30;99.90;;;;;;2100771;28;20309;-71
2022/02/05 05:19:51;;;;;;;;;;;5.40;99.90;;;;;;2103184;28;20384;-71
2022/02/05 05:20:51;;;;;;;;;;;5.40;99.90;;;;;;2105421;28;20284;-71
2022/02/05 05:21:52;;;;;;;;;;;5.40;99.90;;;;;;2104908;28;19908;-71
2022/02/05 05:22:53;;;;;;;;;;;5.40;99.90;;;;;;2100000;28;19999;-71
2022/02/05 05:23:53;;;;;;;;;;;5.40;99.90;;;;;;2105413;28;19912;-71
2022/02/05 05:24:54;;;;;;;;;;;5.40;99.90;;;;;;2103310;28;19912;-71
2022/02/05 05:25:54;;;;;;;;;;;5.40;99.90;;;;;;2102233;28;19919;-71
2022/02/05 05:26:55;;;;;;;;;;;5.40;99.90;;;;;;2103901;28;20032;-71
2022/02/05 05:27:56;;;;;;;;;;;5.40;99.90;;;;;;2101223;28;19931;-72
2022/02/05 05:28:56;;;;;;;;;;;5.40;99.90;;;;;;2102899;28;19923;-71
2022/02/05 05:29:57;;;;;;;;;;;5.40;99.90;;;;;;2101782;28;19922;-71
2022/02/05 05:30:57;;;;;;;;;;;5.40;99.90;;;;;;2099253;28;19913;-71
2022/02/05 05:31:57;;;;;;;;;;;5.40;99.90;;;;;;2103396;28;19908;-71
2022/02/05 05:32:58;;;;;;;;;;;5.40;99.90;;;;;;2102995;28;19915;-71
2022/02/05 05:33:59;;;;;;;;;;;5.40;99.90;;;;;;2102783;28;19928;-71
2022/02/05 05:34:59;;;;;;;;;;;5.40;99.90;;;;;;2105994;28;20351;-71
2022/02/05 05:36:00;;;;;;;;;;;5.40;99.90;;;;;;2105623;28;19923;-71
2022/02/05 05:37:01;;;;;;;;;;;5.40;99.90;;;;;;2101385;28;20004;-71
2022/02/05 05:38:03;;;;;;;;;;;5.40;99.90;;;;;;2103501;28;19993;-71
2022/02/05 05:39:04;;;;;;;;;;;5.40;99.90;;;;;;2101842;28;19934;-71
2022/02/05 05:40:05;;;;;;;;;;;5.40;99.90;;;;;;2102564;28;19908;-71
2022/02/05 05:41:05;;;;;;;;;;;5.50;99.90;;;;;;2100605;28;19913;-71
2022/02/05 05:42:10;;;;;;;;;;;5.40;99.90;;;;;;2104380;28;19908;-71
2022/02/05 05:44:34;;;;;;;;;;;5.50;99.90;;;;;;2102194;28;20352;-71
2022/02/05 05:46:31;;;;;;;;;;;5.50;99.90;;;;;;2096465;28;20360;-71
2022/02/05 05:47:48;;;;;;;;;;;5.50;99.90;;;;;;2096964;28;20392;-71
2022/02/05 05:50:59;;;;;;;;;;;5.50;99.90;;;;;;2100294;28;19935;-71
2022/02/05 05:51:59;;;;;;;;;;;5.50;99.90;;;;;;2100376;28;19908;-71
2022/02/05 05:53:00;;;;;;;;;;;5.50;99.90;;;;;;2104623;28;20007;-71
2022/02/05 05:54:00;;;;;;;;;;;5.50;99.90;;;;;;2099313;28;19909;-71
2022/02/05 05:55:01;;;;;;;;;;;5.50;99.90;;;;;;2102377;28;19920;-71
2022/02/05 05:56:03;;;;;;;;;;;5.50;99.90;;;;;;2102829;28;19912;-71
2022/02/05 05:57:04;;;;;;;;;;;5.50;99.90;;;;;;2101227;28;19916;-71
2022/02/05 05:58:04;;;;;;;;;;;5.50;99.90;;;;;;2110289;28;20490;-71
2022/02/05 05:59:05;;;;;;;;;;;5.50;99.90;;;;;;2109508;28;19959;-71
2022/02/05 06:00:05;;;;;;;;;;;5.50;99.90;;;;;;2103123;28;20275;-71
2022/02/05 06:01:07;;;;;;;;;;;5.50;99.90;;;;;;2102441;28;20275;-71
2022/02/05 06:02:08;;;;;;;;;;;5.50;99.90;;;;;;2106070;28;19946;-71
2022/02/05 06:03:09;;;;;;;;;;;5.50;99.90;;;;;;2099399;28;20310;-71
2022/02/05 06:04:10;;;;;;;;;;;5.50;99.90;;;;;;2103840;28;19939;-71
2022/02/05 06:05:10;;;;;;;;;;;5.50;99.90;;;;;;2100165;28;19919;-71
2022/02/05 06:06:10;;;;;;;;;;;5.50;99.90;;;;;;2102294;28;20352;-71
2022/02/05 06:07:11;;;;;;;;;;;5.50;99.90;;;;;;2101993;28;19908;-71
2022/02/05 06:08:12;;;;;;;;;;;5.50;99.90;;;;;;2101782;28;19908;-71
2022/02/05 06:09:12;;;;;;;;;;;5.50;99.90;;;;;;2102372;28;20353;-71
2022/02/05 06:10:13;;;;;;;;;;;5.50;99.90;;;;;;2099953;28;19963;-71
2022/02/05 06:11:13;;;;;;;;;;;5.50;99.90;;;;;;2104373;28;19909;-71
2022/02/05 06:12:14;;;;;;;;;;;5.50;99.90;;;;;;2108856;28;20431;-71
2022/02/05 06:13:14;;;;;;;;;;;5.40;99.90;;;;;;2107304;28;20061;-71
2022/02/05 06:14:19;;;;;;;;;;;5.40;99.90;;;;;;2102243;28;19920;-71
2022/02/05 06:15:20;;;;;;;;;;;5.40;99.90;;;;;;2111048;28;19920;-71
2022/02/05 06:16:28;;;;;;;;;;;5.50;99.90;;;;;;2109697;27;19915;-71
2022/02/05 06:17:28;;;;;;;;;;;5.50;99.90;;;;;;2103393;28;19908;-71
2022/02/05 06:18:29;;;;;;;;;;;5.50;99.90;;;;;;2106477;28;19908;-71
2022/02/05 06:19:29;;;;;;;;;;;5.50;99.90;;;;;;2105191;28;19916;-71
2022/02/05 06:20:30;;;;;;;;;;;5.50;99.90;;;;;;2093230;28;20007;-71
2022/02/05 06:21:30;;;;;;;;;;;5.50;99.90;;;;;;2098961;28;19915;-71
2022/02/05 06:22:30;;;;;;;;;;;5.50;99.90;;;;;;2103621;28;20281;-71
2022/02/05 06:23:31;;;;;;;;;;;5.50;99.90;;;;;;2101267;28;19913;-71
2022/02/05 06:24:31;;;;;;;;;;;5.50;99.90;;;;;;2106363;28;19961;-71
2022/02/05 06:25:33;;;;;;;;;;;5.50;99.90;;;;;;2102365;28;19908;-71
2022/02/05 06:26:33;;;;;;;;;;;5.40;99.90;;;;;;2112124;28;20627;-71
2022/02/05 06:27:34;;;;;;;;;;;5.40;99.90;;;;;;2107737;28;19908;-71
2022/02/05 06:28:34;;;;;;;;;;;5.40;99.90;;;;;;2101927;28;19912;-71
2022/02/05 06:29:35;;;;;;;;;;;5.40;99.90;;;;;;2103061;28;20280;-71
2022/02/05 06:30:36;;;;;;;;;;;5.40;99.90;;;;;;2102787;28;20498;-71
2022/02/05 06:31:36;;;;;;;;;;;5.40;99.90;;;;;;2101471;28;19912;-71
2022/02/05 06:32:36;;;;;;;;;;;5.40;99.90;;;;;;2104419;28;19912;-71
2022/02/05 06:33:37;;;;;;;;;;;5.40;99.90;;;;;;2097390;28;20411;-71
2022/02/05 06:34:37;;;;;;;;;;;5.40;99.90;;;;;;2097720;28;20054;-71
2022/02/05 06:35:38;;;;;;;;;;;5.40;99.90;;;;;;2101275;28;19916;-71
2022/02/05 06:36:38;;;;;;;;;;;5.40;99.90;;;;;;2093545;28;19958;-71
2022/02/05 06:37:39;;;;;;;;;;;5.40;99.90;;;;;;2096474;28;19912;-71
2022/02/05 06:38:39;;;;;;;;;;;5.40;99.90;;;;;;2100139;28;19913;-71
2022/02/05 06:39:40;;;;;;;;;;;5.40;99.90;;;;;;2102382;28;19969;-71
2022/02/05 06:40:40;;;;;;;;;;;5.40;99.90;;;;;;2101443;28;19908;-71
2022/02/05 06:41:40;;;;;;;;;;;5.40;99.90;;;;;;2102147;28;19908;-71
2022/02/05 06:42:47;;;;;;;;;;;5.40;99.90;;;;;;2100148;28;19913;-71
2022/02/05 06:43:48;;;;;;;;;;;5.40;99.90;;;;;;2106425;28;19919;-71
2022/02/05 06:44:48;;;;;;;;;;;5.40;99.90;;;;;;2102440;28;19908;-71
2022/02/05 06:45:48;;;;;;;;;;;5.40;99.90;;;;;;2105344;28;20500;-71
2022/02/05 06:46:49;;;;;;;;;;;5.40;99.90;;;;;;2098710;28;19999;-71
2022/02/05 06:47:50;;;;;;;;;;;5.40;99.90;;;;;;2103450;28;19914;-71
2022/02/05 06:48:50;;;;;;;;;;;5.40;99.90;;;;;;2105252;28;19959;-71
2022/02/05 06:49:50;;;;;;;;;;;5.40;99.90;;;;;;2102902;28;20445;-71
2022/02/05 06:50:51;;;;;;;;;;;5.40;99.90;;;;;;2101425;28;19955;-71
2022/02/05 06:51:54;;;;;;;;;;;5.40;99.90;;;;;;2101653;28;19912;-71
2022/02/05 06:52:55;;;;;;;;;;;5.40;99.90;;;;;;2101576;28;20378;-71
2022/02/05 06:53:55;;;;;;;;;;;5.40;99.90;;;;;;2099420;28;20304;-71
2022/02/05 06:54:55;;;;;;;;;;;5.40;99.90;;;;;;2103837;28;19908;-71
2022/02/05 06:55:56;;;;;;;;;;;5.40;99.90;;;;;;2100369;28;20667;-71
2022/02/05 06:56:56;;;;;;;;;;;5.40;99.90;;;;;;2099254;28;19922;-71
2022/02/05 06:57:57;;;;;;;;;;;5.30;99.90;;;;;;2106016;28;19913;-71
2022/02/05 06:58:57;;;;;;;;;;;5.30;99.90;;;;;;2098775;28;20283;-71
2022/02/05 06:59:58;;;;;;;;;;;5.30;99.90;;;;;;2094354;28;19909;-71
2022/02/05 07:00:58;;;;;;;;;;;5.30;99.90;;;;;;2093191;28;20272;-71
2022/02/05 07:01:59;;;;;;;;;;;5.30;99.90;;;;;;2098532;28;20418;-71
2022/02/05 07:02:59;;;;;;;;;;;5.30;99.90;;;;;;2107495;28;19916;-71
2022/02/05 07:03:59;;;;;;;;;;;5.40;99.90;;;;;;2108074;28;20364;-71
2022/02/05 07:05:00;;;;;;;;;;;5.40;99.90;;;;;;2099250;28;19908;-71
2022/02/05 07:06:00;;;;;;;;;;;5.40;99.90;;;;;;2099961;28;19912;-71
2022/02/05 07:07:01;;;;;;;;;;;5.40;99.90;;;;;;2098482;28;19908;-71
2022/02/05 07:08:01;;;;;;;;;;;5.40;99.90;;;;;;2102047;28;19908;-72
2022/02/05 07:09:04;;;;;;;;;;;5.40;99.90;;;;;;2100612;28;19913;-71
2022/02/05 07:10:06;;;;;;;;;;;5.40;99.90;;;;;;2099541;28;19912;-71
2022/02/05 07:11:07;;;;;;;;;;;5.40;99.90;;;;;;2102921;28;19973;-71
2022/02/05 07:12:09;;;;;;;;;;;5.40;99.90;;;;;;2103267;28;19916;-71
2022/02/05 07:13:13;;;;;;;;;;;5.40;99.90;;;;;;2099960;28;20000;-71
2022/02/05 07:14:16;;;;;;;;;;;5.50;99.90;;;;;;2104061;28;20457;-71
2022/02/05 07:15:22;;;;;;;;;;;5.40;99.90;;;;;;2101070;28;19919;-71
2022/02/05 07:16:28;;;;;;;;;;;5.40;99.90;;;;;;2100203;28;19908;-71
2022/02/05 07:19:08;;;;;;;;;;;5.50;99.90;;;;;;2099693;28;20023;-71
2022/02/05 07:21:28;;;;;;;;;;;5.50;99.90;;;;;;2104135;28;19950;-71
2022/02/05 07:22:34;;;;;;;;;;;5.50;99.90;;;;;;2100124;28;19908;-71
2022/02/05 07:23:48;;;;;;;;;;;5.50;99.90;;;;;;2098427;28;20375;-71
2022/02/05 07:29:55;;;;;;;;;;;5.50;99.90;;;;;;2100254;28;19912;-71
2022/02/05 07:30:59;;;;;;;;;;;5.50;99.90;;;;;;2098802;28;19995;-71
2022/02/05 07:31:59;;;;;;;;;;;5.60;99.90;;;;;;2101632;28;20370;-71
2022/02/05 07:33:00;;;;;;;;;;;5.60;99.90;;;;;;2104859;28;20362;-72
2022/02/05 07:34:01;;;;;;;;;;;5.60;99.90;;;;;;2110035;28;19947;-71
2022/02/05 07:35:02;;;;;;;;;;;5.60;99.90;;;;;;2099139;28;19908;-71
2022/02/05 07:36:02;;;;;;;;;;;5.60;99.90;;;;;;2099391;28;19915;-71
2022/02/05 07:37:04;;;;;;;;;;;5.60;99.90;;;;;;2098606;28;19913;-71
2022/02/05 07:38:04;;;;;;;;;;;5.60;99.90;;;;;;2098732;28;19982;-71
2022/02/05 07:39:08;;;;;;;;;;;5.60;99.90;;;;;;2097877;28;19939;-71
2022/02/05 07:40:09;;;;;;;;;;;5.60;99.90;;;;;;2098957;28;20556;-71
2022/02/05 07:41:10;;;;;;;;;;;5.60;99.90;;;;;;2097110;28;20048;-71
2022/02/05 07:42:11;;;;;;;;;;;5.60;99.90;;;;;;2101969;28;19959;-71
2022/02/05 07:43:11;;;;;;;;;;;5.60;99.90;;;;;;2100201;28;19981;-71
2022/02/05 07:44:13;;;;;;;;;;;5.60;99.90;;;;;;2092137;28;19917;-71
2022/02/05 07:45:14;;;;;;;;;;;5.60;99.90;;;;;;2091929;28;19912;-71
2022/02/05 07:46:14;;;;;;;;;;;5.60;99.90;;;;;;2097893;28;19991;-71
2022/02/05 07:47:16;;;;;;;;;;;5.60;99.90;;;;;;2101131;28;19924;-71
2022/02/05 07:48:17;;;;;;;;;;;5.60;99.90;;;;;;2098355;28;19919;-71
2022/02/05 07:49:18;;;;;;;;;;;5.60;99.90;;;;;;2100154;28;19915;-71
2022/02/05 07:50:19;;;;;;;;;;;5.60;99.90;;;;;;2097945;28;19909;-71
2022/02/05 07:51:19;;;;;;;;;;;5.60;99.90;;;;;;2097132;28;19908;-71
2022/02/05 07:52:20;;;;;;;;;;;5.70;99.90;;;;;;2105230;28;19918;-71
2022/02/05 07:53:20;;;;;;;;;;;5.60;99.90;;;;;;2106528;28;20333;-71
2022/02/05 07:54:21;;;;;;;;;;;5.60;99.90;;;;;;2098061;28;19913;-71
2022/02/05 07:55:21;;;;;;;;;;;5.60;99.90;;;;;;2099942;28;20062;-71
2022/02/05 07:56:23;;;;;;;;;;;5.60;99.90;;;;;;2107454;28;20006;-71
2022/02/05 07:57:27;;;;;;;;;;;5.60;99.90;;;;;;2108716;28;19908;-71
2022/02/05 07:58:27;;;;;;;;;;;5.70;99.90;;;;;;2097693;28;19921;-71
2022/02/05 07:59:28;;;;;;;;;;;5.60;99.90;;;;;;2099090;28;19994;-71
2022/02/05 08:00:28;;;;;;;;;;;5.70;99.90;;;;;;2096828;28;19909;-71
2022/02/05 08:01:30;;;;;;;;;;;5.70;99.90;;;;;;2098345;28;19920;-71
2022/02/05 08:02:30;;;;;;;;;;;5.70;99.90;;;;;;2099842;28;19912;-71
2022/02/05 08:03:31;;;;;;;;;;;5.70;99.90;;;;;;2097840;28;19919;-71
2022/02/05 08:04:32;;;;;;;;;;;5.70;99.90;;;;;;2097404;28;19908;-72
2022/02/05 08:05:33;;;;;;;;;;;5.70;99.90;;;;;;2096377;28;19909;-71
2022/02/05 08:06:34;;;;;;;;;;;5.70;99.90;;;;;;2098463;28;19944;-71
2022/02/05 08:07:35;;;;;;;;;;;5.70;99.90;;;;;;2100901;28;19961;-71
2022/02/05 08:08:35;;;;;;;;;;;5.70;99.90;;;;;;2098307;28;19920;-71
2022/02/05 08:09:54;;;;;;;;;;;5.70;99.90;;;;;;2100619;28;19917;-71
2022/02/05 08:10:58;;;;;;;;;;;5.80;99.90;;;;;;2102133;28;19980;-71
2022/02/05 08:12:04;;;;;;;;;;;5.80;99.90;;;;;;2099591;28;19909;-71
2022/02/05 08:13:05;;;;;;;;;;;5.80;99.90;;;;;;2101007;28;19909;-71
2022/02/05 08:14:08;;;;;;;;;;;5.80;99.90;;;;;;2103531;28;19999;-71